createdAt,value
2018-04-11T00:01:53.776Z,5.70
2018-04-11T00:04:20.297Z,5.60
2018-04-11T00:06:46.835Z,5.60
2018-04-11T00:09:13.293Z,5.50
2018-04-11T00:11:40.066Z,5.40
2018-04-11T00:14:07.090Z,5.40
2018-04-11T00:16:33.588Z,5.40
2018-04-11T00:19:00.265Z,5.50
2018-04-11T00:21:26.562Z,5.30
2018-04-11T00:23:53.052Z,5.20
2018-04-11T00:26:20.461Z,5.30
2018-04-11T00:28:46.925Z,5.30
2018-04-11T00:31:13.742Z,5.00
2018-04-11T00:33:41.018Z,5.20
2018-04-11T00:36:07.433Z,5.20
2018-04-11T00:38:33.901Z,5.20
2018-04-11T00:41:00.437Z,5.10
2018-04-11T00:43:26.907Z,5.20
2018-04-11T00:48:24.764Z,5.00
2018-04-11T00:50:54.258Z,5.10
2018-04-11T00:53:26.913Z,5.10
2018-04-11T00:55:53.343Z,5.00
2018-04-11T00:58:21.574Z,5.10
2018-04-11T01:00:48.062Z,5.50
2018-04-11T01:03:14.379Z,5.10
2018-04-11T01:05:41.529Z,5.10
2018-04-11T01:08:08.124Z,5.10
2018-04-11T01:10:35.372Z,5.10
2018-04-11T01:13:01.814Z,5.20
2018-04-11T01:15:28.345Z,5.00
2018-04-11T01:17:54.802Z,5.20
2018-04-11T01:20:40.149Z,5.10
2018-04-11T01:23:06.577Z,5.20
2018-04-11T01:25:33.062Z,5.00
2018-04-11T01:27:59.826Z,5.00
2018-04-11T01:30:27.065Z,5.00
2018-04-11T01:32:53.788Z,5.10
2018-04-11T01:35:20.314Z,5.20
2018-04-11T01:37:47.095Z,5.00
2018-04-11T01:40:13.685Z,5.10
2018-04-11T01:42:40.613Z,5.00
2018-04-11T01:47:35.513Z,5.00
2018-04-11T01:50:03.261Z,5.10
2018-04-11T01:52:29.667Z,5.10
2018-04-11T01:54:56.160Z,5.10
2018-04-11T01:57:22.593Z,5.10
2018-04-11T01:59:49.208Z,5.10
2018-04-11T02:02:16.483Z,5.00
2018-04-11T02:04:43.254Z,5.00
2018-04-11T02:09:38.029Z,5.00
2018-04-11T02:12:05.122Z,5.00
2018-04-11T02:14:31.595Z,5.00
2018-04-11T02:16:57.951Z,5.00
2018-04-11T02:21:52.546Z,5.00
2018-04-11T02:24:18.873Z,5.00
2018-04-11T02:26:45.526Z,5.20
2018-04-11T02:29:11.951Z,5.00
2018-04-11T02:31:38.509Z,5.00
2018-04-11T02:34:05.739Z,5.10
2018-04-11T02:36:32.145Z,5.10
2018-04-11T02:38:58.606Z,5.20
2018-04-11T02:41:25.447Z,5.30
2018-04-11T02:43:51.810Z,5.30
2018-04-11T02:46:18.227Z,5.30
2018-04-11T02:48:44.868Z,5.30
2018-04-11T02:51:11.245Z,5.30
2018-04-11T02:53:38.074Z,5.40
2018-04-11T02:56:04.524Z,5.50
2018-04-11T02:58:30.857Z,5.40
2018-04-11T03:00:57.304Z,5.50
2018-04-11T03:03:23.810Z,5.50
2018-04-11T03:05:50.267Z,5.40
2018-04-11T03:08:16.655Z,5.50
2018-04-11T03:10:43.775Z,5.50
2018-04-11T03:13:10.585Z,5.50
2018-04-11T03:15:37.009Z,5.60
2018-04-11T03:18:04.601Z,5.50
2018-04-11T03:20:31.809Z,5.50
2018-04-11T03:22:58.254Z,5.40
2018-04-11T03:25:24.681Z,5.50
2018-04-11T03:27:51.837Z,5.50
2018-04-11T03:30:19.007Z,5.50
2018-04-11T03:32:45.852Z,5.50
2018-04-11T03:35:12.219Z,5.60
2018-04-11T03:37:38.596Z,5.30
2018-04-11T03:40:05.082Z,5.50
2018-04-11T03:42:31.535Z,5.80
2018-04-11T03:44:57.911Z,5.40
2018-04-11T03:47:24.777Z,5.50
2018-04-11T03:49:51.219Z,5.40
2018-04-11T03:52:23.831Z,5.50
2018-04-11T03:54:51.331Z,5.50
2018-04-11T03:57:17.819Z,5.30
2018-04-11T03:59:44.173Z,5.40
2018-04-11T04:02:11.051Z,5.40
2018-04-11T04:04:38.646Z,5.30
2018-04-11T04:07:05.067Z,5.40
2018-04-11T04:09:32.190Z,5.40
2018-04-11T04:11:58.935Z,5.50
2018-04-11T04:14:38.399Z,5.40
2018-04-11T04:20:33.926Z,5.30
2018-04-11T04:23:01.826Z,5.30
2018-04-11T04:25:28.778Z,5.40
2018-04-11T04:30:24.307Z,5.30
2018-04-11T04:32:50.772Z,5.30
2018-04-11T04:35:17.313Z,5.20
2018-04-11T04:37:43.772Z,5.40
2018-04-11T04:40:11.444Z,5.30
2018-04-11T04:42:39.537Z,5.30
2018-04-11T04:45:05.944Z,5.40
2018-04-11T04:50:01.155Z,5.40
2018-04-11T04:52:27.755Z,5.40
2018-04-11T04:54:55.281Z,5.40
2018-04-11T04:57:24.130Z,5.50
2018-04-11T04:59:51.735Z,5.50
2018-04-11T05:02:18.935Z,5.50
2018-04-11T05:07:15.639Z,5.50
2018-04-11T05:09:45.685Z,5.50
2018-04-11T05:12:13.776Z,5.50
2018-04-11T05:14:42.192Z,5.60
2018-04-11T05:17:09.655Z,5.30
2018-04-11T05:19:36.220Z,5.60
2018-04-11T05:24:31.142Z,5.60
2018-04-11T05:26:59.194Z,5.70
2018-04-11T05:29:27.814Z,5.90
2018-04-11T05:31:57.635Z,5.60
2018-04-11T05:34:24.659Z,5.60
2018-04-11T05:39:19.359Z,5.60
2018-04-11T05:44:14.591Z,5.50
2018-04-11T05:49:10.711Z,5.70
2018-04-11T05:51:38.091Z,5.70
2018-04-11T05:54:04.995Z,5.70
2018-04-11T05:56:37.284Z,5.60
2018-04-11T05:59:05.381Z,5.80
2018-04-11T06:01:32.062Z,5.80
2018-04-11T06:03:58.762Z,5.80
2018-04-11T06:06:25.277Z,5.90
2018-04-11T06:08:53.384Z,5.90
2018-04-11T06:11:21.026Z,5.90
2018-04-11T06:13:52.051Z,5.90
2018-04-11T06:16:18.599Z,6.00
2018-04-11T06:18:48.817Z,5.90
2018-04-11T06:21:16.473Z,6.00
2018-04-11T06:23:42.933Z,6.00
2018-04-11T06:26:10.299Z,5.90
2018-04-11T06:28:38.423Z,6.00
2018-04-11T06:31:05.353Z,6.20
2018-04-11T06:33:32.757Z,6.20
2018-04-11T06:36:00.574Z,6.20
2018-04-11T06:38:27.443Z,6.20
2018-04-11T06:40:54.269Z,6.20
2018-04-11T06:43:21.350Z,6.30
2018-04-11T06:45:47.972Z,6.10
2018-04-11T06:48:16.234Z,6.20
2018-04-11T06:50:44.071Z,6.20
2018-04-11T06:53:10.909Z,6.40
2018-04-11T06:55:38.435Z,6.30
2018-04-11T07:00:33.140Z,6.40
2018-04-11T07:03:00.102Z,6.00
2018-04-11T07:05:30.922Z,6.30
2018-04-11T07:07:59.005Z,6.50
2018-04-11T07:10:29.442Z,6.50
2018-04-11T07:13:09.497Z,6.50
2018-04-11T07:18:21.947Z,6.50
2018-04-11T07:25:47.396Z,6.40
2018-04-11T07:30:41.878Z,6.70
2018-04-11T07:33:08.830Z,6.70
2018-04-11T07:38:03.425Z,6.80
2018-04-11T07:42:59.588Z,6.90
2018-04-11T07:47:55.156Z,7.00
2018-04-11T07:52:51.250Z,7.10
2018-04-11T07:55:17.616Z,7.20
2018-04-11T07:57:44.724Z,7.10
2018-04-11T08:00:11.988Z,7.00
2018-04-11T08:02:38.769Z,7.10
2018-04-11T08:10:07.686Z,6.70
2018-04-11T08:15:04.107Z,6.80
2018-04-11T08:17:31.318Z,6.90
2018-04-11T08:19:58.905Z,7.00
2018-04-11T08:24:53.606Z,7.00
2018-04-11T08:29:48.261Z,7.00
2018-04-11T08:34:45.413Z,7.40
2018-04-11T08:37:12.114Z,7.50
2018-04-11T08:39:38.575Z,7.70
2018-04-11T08:42:05.927Z,7.80
2018-04-11T08:51:56.400Z,7.70
2018-04-11T08:54:23.902Z,7.40
2018-04-11T08:56:50.730Z,7.30
2018-04-11T08:59:17.200Z,7.10
2018-04-11T09:04:12.118Z,7.40
2018-04-11T09:06:38.518Z,7.70
2018-04-11T09:09:05.696Z,7.60
2018-04-11T09:14:00.246Z,7.70
2018-04-11T09:18:56.162Z,7.70
2018-04-11T09:21:22.633Z,7.90
2018-04-11T09:23:51.019Z,8.10
2018-04-11T09:28:45.785Z,8.00
2018-04-11T09:36:10.153Z,8.00
2018-04-11T09:41:04.975Z,8.50
2018-04-11T09:43:32.447Z,7.80
2018-04-11T09:48:27.225Z,7.90
2018-04-11T09:50:54.062Z,8.30
2018-04-11T09:53:20.427Z,7.80
2018-04-11T09:55:47.263Z,8.00
2018-04-11T10:00:41.739Z,8.00
2018-04-11T10:03:08.889Z,7.70
2018-04-11T10:05:36.799Z,7.70
2018-04-11T10:12:59.423Z,7.90
2018-04-11T10:15:25.875Z,7.70
2018-04-11T10:22:49.549Z,8.20
2018-04-11T10:27:44.225Z,8.20
2018-04-11T10:30:10.619Z,8.00
2018-04-11T10:35:05.461Z,7.70
2018-04-11T10:37:32.063Z,8.10
2018-04-11T10:39:58.878Z,8.30
2018-04-11T10:42:25.259Z,7.90
2018-04-11T10:44:52.204Z,7.90
2018-04-11T10:49:46.771Z,8.00
2018-04-11T10:52:14.598Z,8.00
2018-04-11T10:54:42.434Z,8.00
2018-04-11T10:57:09.621Z,7.80
2018-04-11T10:59:36.906Z,7.80
2018-04-11T11:02:03.342Z,7.70
2018-04-11T11:04:30.459Z,7.80
2018-04-11T11:06:56.841Z,8.00
2018-04-11T11:09:23.659Z,8.10
2018-04-11T11:16:46.164Z,8.70
2018-04-11T11:19:12.584Z,8.70
2018-04-11T11:26:36.757Z,8.80
2018-04-11T11:29:03.237Z,8.60
2018-04-11T11:31:30.668Z,8.50
2018-04-11T11:33:57.536Z,8.60
2018-04-11T11:36:25.472Z,8.30
2018-04-11T11:38:53.041Z,8.30
2018-04-11T11:41:21.000Z,8.30
2018-04-11T11:43:50.788Z,8.40
2018-04-11T11:46:18.091Z,8.30
2018-04-11T11:48:44.877Z,8.50
2018-04-11T11:51:11.675Z,8.90
2018-04-11T11:53:38.832Z,9.20
2018-04-11T11:56:05.364Z,9.00
2018-04-11T11:58:32.511Z,9.30
2018-04-11T12:01:00.701Z,9.20
2018-04-11T12:03:27.391Z,9.40
2018-04-11T12:05:54.377Z,9.80
2018-04-11T12:08:21.342Z,9.80
2018-04-11T12:15:45.118Z,10.50
2018-04-11T12:18:11.932Z,10.50
2018-04-11T12:20:39.022Z,10.30
2018-04-11T12:23:05.541Z,10.10
2018-04-11T12:25:32.531Z,10.00
2018-04-11T12:27:59.368Z,10.20
2018-04-11T12:30:26.773Z,10.30
2018-04-11T12:32:54.184Z,10.30
2018-04-11T12:35:21.071Z,10.10
2018-04-11T12:37:51.188Z,10.10
2018-04-11T12:40:19.320Z,10.40
2018-04-11T12:42:45.821Z,10.40
2018-04-11T12:45:12.360Z,10.50
2018-04-11T12:47:39.140Z,10.50
2018-04-11T12:50:06.251Z,10.00
2018-04-11T12:57:32.308Z,9.20
2018-04-11T13:02:28.440Z,9.40
2018-04-11T13:04:55.966Z,9.30
2018-04-11T13:09:50.990Z,9.20
2018-04-11T13:14:46.516Z,9.30
2018-04-11T13:17:14.064Z,9.40
2018-04-11T13:22:08.961Z,9.60
2018-04-11T13:24:35.669Z,9.80
2018-04-11T13:29:31.540Z,9.80
2018-04-11T13:31:59.635Z,10.10
2018-04-11T13:34:26.405Z,10.60
2018-04-11T13:36:53.536Z,10.30
2018-04-11T13:39:20.638Z,10.30
2018-04-11T13:41:48.574Z,10.80
2018-04-11T13:44:15.430Z,11.10
2018-04-11T13:46:41.953Z,11.10
2018-04-11T13:49:09.574Z,11.20
2018-04-11T13:54:05.401Z,10.20
2018-04-11T13:56:32.315Z,10.30
2018-04-11T13:58:59.107Z,10.30
2018-04-11T14:01:25.755Z,10.90
2018-04-11T14:03:52.647Z,9.90
2018-04-11T14:08:48.826Z,9.90
2018-04-11T14:11:15.165Z,9.50
2018-04-11T14:18:39.295Z,9.50
2018-04-11T14:21:05.984Z,9.20
2018-04-11T14:23:32.939Z,9.10
2018-04-11T14:26:00.375Z,9.10
2018-04-11T14:28:27.680Z,9.00
2018-04-11T14:30:54.185Z,8.80
2018-04-11T14:33:22.031Z,8.80
2018-04-11T14:35:49.405Z,8.90
2018-04-11T14:38:18.054Z,8.70
2018-04-11T14:40:45.310Z,8.70
2018-04-11T14:43:11.739Z,8.50
2018-04-11T14:45:38.532Z,8.50
2018-04-11T14:48:06.930Z,8.30
2018-04-11T14:50:35.389Z,8.50
2018-04-11T14:53:03.418Z,8.40
2018-04-11T14:57:59.352Z,9.10
2018-04-11T15:00:26.317Z,8.00
2018-04-11T15:02:53.430Z,7.80
2018-04-11T15:05:21.377Z,7.90
2018-04-11T15:07:48.363Z,8.20
2018-04-11T15:10:14.832Z,8.00
2018-04-11T15:12:41.249Z,8.10
2018-04-11T15:15:09.009Z,7.80
2018-04-11T15:17:37.051Z,7.60
2018-04-11T15:20:06.841Z,7.60
2018-04-11T15:22:33.284Z,7.40
2018-04-11T15:24:59.746Z,7.80
2018-04-11T15:27:26.182Z,7.50
2018-04-11T15:29:53.098Z,7.60
2018-04-11T15:32:20.644Z,7.60
2018-04-11T15:34:47.538Z,7.60
2018-04-11T15:37:15.044Z,7.70
2018-04-11T15:39:42.995Z,7.80
2018-04-11T15:42:09.953Z,7.10
2018-04-11T15:44:37.579Z,7.50
2018-04-11T15:47:06.150Z,7.40
2018-04-11T15:49:34.431Z,7.40
2018-04-11T15:52:02.515Z,7.20
2018-04-11T15:54:31.145Z,7.30
2018-04-11T16:01:55.944Z,7.40
2018-04-11T16:04:22.706Z,7.30
2018-04-11T16:09:19.614Z,7.30
2018-04-11T16:11:46.754Z,7.10
2018-04-11T16:16:42.661Z,7.10
2018-04-11T16:24:07.913Z,6.90
2018-04-11T16:26:37.021Z,6.90
2018-04-11T16:29:06.547Z,6.70
2018-04-11T16:31:35.247Z,6.90
2018-04-11T16:34:01.777Z,6.90
2018-04-11T16:38:56.524Z,7.20
2018-04-11T16:41:23.239Z,7.30
2018-04-11T16:43:50.052Z,7.00
2018-04-11T16:46:16.495Z,6.90
2018-04-11T16:48:44.270Z,6.80
2018-04-11T16:51:11.947Z,6.80
2018-04-11T16:56:06.618Z,6.80
2018-04-11T16:58:33.013Z,7.20
2018-04-11T17:01:00.238Z,6.70
2018-04-11T17:03:28.612Z,6.70
2018-04-11T17:05:55.009Z,6.70
2018-04-11T17:08:22.076Z,6.80
2018-04-11T17:10:49.435Z,6.80
2018-04-11T17:13:16.915Z,6.90
2018-04-11T17:15:43.459Z,6.80
2018-04-11T17:18:10.840Z,6.70
2018-04-11T17:20:49.770Z,6.80
2018-04-11T17:26:34.991Z,6.60
2018-04-11T17:29:14.577Z,6.60
2018-04-11T17:31:42.922Z,6.70
2018-04-11T17:34:09.378Z,6.70
2018-04-11T17:36:36.638Z,6.70
2018-04-11T17:39:04.226Z,6.50
2018-04-11T17:41:32.201Z,6.40
2018-04-11T17:43:58.621Z,6.00
2018-04-11T17:46:25.454Z,6.30
2018-04-11T17:48:52.661Z,6.20
2018-04-11T17:53:47.273Z,6.00
2018-04-11T17:56:14.426Z,5.90
2018-04-11T17:58:41.524Z,6.00
2018-04-11T18:01:07.914Z,5.90
2018-04-11T18:03:34.674Z,5.70
2018-04-11T18:06:01.142Z,5.70
2018-04-11T18:08:29.119Z,5.60
2018-04-11T18:10:56.003Z,4.90
2018-04-11T18:13:22.477Z,5.50
2018-04-11T18:18:16.873Z,5.10
2018-04-11T18:20:51.563Z,5.40
2018-04-11T18:23:19.047Z,5.40
2018-04-11T18:25:45.486Z,5.50
2018-04-11T18:28:12.018Z,5.80
2018-04-11T18:30:38.749Z,5.50
2018-04-11T18:33:05.152Z,5.30
2018-04-11T18:35:31.943Z,5.30
2018-04-11T18:37:58.429Z,5.20
2018-04-11T18:40:25.046Z,5.30
2018-04-11T18:47:49.130Z,5.20
2018-04-11T18:50:16.447Z,5.20
2018-04-11T18:52:43.804Z,5.20
2018-04-11T18:55:11.098Z,5.30
2018-04-11T18:57:38.173Z,5.30
2018-04-11T19:00:04.699Z,5.20
2018-04-11T19:02:31.901Z,5.20
2018-04-11T19:04:58.860Z,5.10
2018-04-11T19:07:25.326Z,5.10
2018-04-11T19:09:51.823Z,5.00
2018-04-11T19:12:18.719Z,5.00
2018-04-11T19:14:45.164Z,4.90
2018-04-11T19:17:12.197Z,4.90
2018-04-11T19:19:39.741Z,5.00
2018-04-11T19:22:06.887Z,5.00
2018-04-11T19:24:38.905Z,4.80
2018-04-11T19:27:06.444Z,4.90
2018-04-11T19:29:38.950Z,4.90
2018-04-11T19:32:05.576Z,4.60
2018-04-11T19:34:33.701Z,4.50
2018-04-11T19:37:05.009Z,4.90
2018-04-11T19:39:33.056Z,4.80
2018-04-11T19:44:35.949Z,4.80
2018-04-11T19:47:04.117Z,4.70
2018-04-11T19:49:30.591Z,4.60
2018-04-11T19:56:55.385Z,4.60
2018-04-11T19:59:23.191Z,4.60
2018-04-11T20:01:49.859Z,4.60
2018-04-11T20:04:16.756Z,4.60
2018-04-11T20:09:17.749Z,4.50
2018-04-11T20:11:44.708Z,4.50
2018-04-11T20:14:11.390Z,4.30
2018-04-11T20:16:37.983Z,4.40
2018-04-11T20:19:04.556Z,4.40
2018-04-11T20:21:31.386Z,4.50
2018-04-11T20:23:58.265Z,4.60
2018-04-11T20:26:24.843Z,4.70
2018-04-11T20:28:51.195Z,4.80
2018-04-11T20:31:19.627Z,4.70
2018-04-11T20:33:46.740Z,4.60
2018-04-11T20:36:13.474Z,4.80
2018-04-11T20:38:40.227Z,4.70
2018-04-11T20:43:35.468Z,4.60
2018-04-11T20:46:02.096Z,4.50
2018-04-11T20:48:29.468Z,4.70
2018-04-11T20:50:57.699Z,4.70
2018-04-11T20:53:24.195Z,4.60
2018-04-11T20:55:51.131Z,4.60
2018-04-11T20:58:18.966Z,4.60
2018-04-11T21:00:45.877Z,4.70
2018-04-11T21:03:13.461Z,4.70
2018-04-11T21:05:40.791Z,4.60
2018-04-11T21:08:08.633Z,4.50
2018-04-11T21:10:35.768Z,4.60
2018-04-11T21:13:09.413Z,4.20
2018-04-11T21:15:35.870Z,4.50
2018-04-11T21:18:03.132Z,4.50
2018-04-11T21:20:29.638Z,4.60
2018-04-11T21:22:56.836Z,4.60
2018-04-11T21:25:23.284Z,4.60
2018-04-11T21:27:49.675Z,4.70
2018-04-11T21:30:16.312Z,4.60
2018-04-11T21:32:43.069Z,4.60
2018-04-11T21:35:09.848Z,4.70
2018-04-11T21:37:37.045Z,4.70
2018-04-11T21:40:04.246Z,4.70
2018-04-11T21:45:00.050Z,4.70
2018-04-11T21:47:27.447Z,4.70
2018-04-11T21:52:29.657Z,4.90
2018-04-11T21:54:56.241Z,4.70
2018-04-11T21:57:22.877Z,4.70
2018-04-11T21:59:51.649Z,4.70
2018-04-11T22:02:20.066Z,4.70
2018-04-11T22:04:48.625Z,4.80
2018-04-11T22:07:15.544Z,4.80
2018-04-11T22:09:43.109Z,4.80
2018-04-11T22:12:12.121Z,4.80
2018-04-11T22:14:40.163Z,4.70
2018-04-11T22:17:06.792Z,4.70
2018-04-11T22:19:33.659Z,4.90
2018-04-11T22:22:00.497Z,4.70
2018-04-11T22:24:26.922Z,4.80
2018-04-11T22:26:53.372Z,4.60
2018-04-11T22:29:20.136Z,4.80
2018-04-11T22:31:46.519Z,4.80
2018-04-11T22:34:13.274Z,4.90
2018-04-11T22:36:39.787Z,4.90
2018-04-11T22:39:06.220Z,4.90
2018-04-11T22:41:32.600Z,4.80
2018-04-11T22:43:59.524Z,4.50
2018-04-11T22:46:26.005Z,4.80
2018-04-11T22:48:52.626Z,4.80
2018-04-11T22:51:19.588Z,4.50
2018-04-11T22:53:46.207Z,4.90
2018-04-11T22:56:12.874Z,4.80
2018-04-11T22:58:39.847Z,4.60
2018-04-11T23:01:06.344Z,4.80
2018-04-11T23:03:32.809Z,4.70
2018-04-11T23:05:59.848Z,4.70
2018-04-11T23:08:26.470Z,4.70
2018-04-11T23:10:52.939Z,4.30
2018-04-11T23:13:19.895Z,4.50
2018-04-11T23:15:46.389Z,4.70
2018-04-11T23:18:12.931Z,4.60
2018-04-11T23:20:39.461Z,4.70
2018-04-11T23:23:05.971Z,4.60
2018-04-11T23:25:33.194Z,4.60
2018-04-11T23:27:59.813Z,4.70
2018-04-11T23:30:26.341Z,4.70
2018-04-11T23:32:52.777Z,4.60
2018-04-11T23:35:19.347Z,4.60
2018-04-11T23:37:45.886Z,4.60
2018-04-11T23:40:13.211Z,4.40
2018-04-11T23:42:40.392Z,4.70
2018-04-11T23:45:06.882Z,4.70
2018-04-11T23:47:33.261Z,4.80
2018-04-11T23:49:59.760Z,4.60
2018-04-11T23:52:27.225Z,4.60
2018-04-11T23:54:54.551Z,4.60
2018-04-11T23:57:21.280Z,4.70
2018-04-11T23:59:47.670Z,4.60
